Time;durP1;ratioP1;P1;durP2;ratioP2;P2;SDS_P1;SDS_P2;PMS_P1;PMS_P2;Temp;Humidity;BMP_temperature;BMP_pressure;BME280_temperature;BME280_humidity;BME280_pressure;Samples;Min_cycle;Max_cycle;Signal;HPM_P1;HPM_P2
2023/03/23 00:01:19;;;;;;;7.57;3.40;;;;;;;11.80;100.00;99977.16;5115395;28;20472;-53
2023/03/23 00:03:46;;;;;;;4.97;3.05;;;;;;;11.58;100.00;99933.47;5115559;28;20050;-54
2023/03/23 00:06:16;;;;;;;6.05;3.22;;;;;;;11.83;100.00;99991.97;5080812;28;20072;-51
2023/03/23 00:08:46;;;;;;;5.50;2.97;;;;;;;11.85;100.00;99983.03;5098072;28;20032;-55
2023/03/23 00:11:18;;;;;;;6.40;3.17;;;;;;;11.62;100.00;99937.66;5115117;28;20394;-54
2023/03/23 00:13:45;;;;;;;5.75;2.95;;;;;;;11.53;100.00;99917.06;5080163;28;20077;-55
2023/03/23 00:16:16;;;;;;;7.00;3.22;;;;;;;11.90;100.00;99985.44;5098866;28;20131;-59
2023/03/23 00:18:45;;;;;;;3.25;2.47;;;;;;;11.73;100.00;99943.28;5115201;28;20031;-56
2023/03/23 00:21:11;;;;;;;6.85;2.83;;;;;;;11.93;100.00;99977.38;5113826;28;20032;-52
2023/03/23 00:23:38;;;;;;;8.77;2.75;;;;;;;11.96;100.00;99982.50;5115278;28;20039;-55
2023/03/23 00:26:03;;;;;;;4.60;2.63;;;;;;;11.89;100.00;99967.06;5115303;28;20047;-51
2023/03/23 00:28:29;;;;;;;5.72;2.50;;;;;;;12.01;100.00;99971.69;5115166;28;20039;-55
2023/03/23 00:31:05;;;;;;;4.60;2.40;;;;;;;11.60;100.00;99907.88;5115193;28;20440;-56
2023/03/23 00:33:37;;;;;;;6.72;2.88;;;;;;;11.65;100.00;99906.72;5113849;28;20123;-54
2023/03/23 00:36:04;;;;;;;4.30;2.58;;;;;;;11.71;100.00;99911.69;5113461;28;20082;-57
2023/03/23 00:38:29;;;;;;;4.47;2.42;;;;;;;11.96;100.00;99948.22;5114943;28;20020;-52
2023/03/23 00:40:54;;;;;;;4.32;2.40;;;;;;;11.87;100.00;99942.56;5115156;28;20134;-55
2023/03/23 00:43:20;;;;;;;6.20;2.60;;;;;;;11.81;100.00;99946.38;5113681;28;20047;-57
2023/03/23 00:45:52;;;;;;;3.50;2.17;;;;;;;11.44;100.00;99889.34;5113398;28;20043;-56
2023/03/23 00:48:19;;;;;;;2.90;1.92;;;;;;;11.43;100.00;99882.41;5114567;28;20028;-61
2023/03/23 00:50:44;;;;;;;5.15;2.55;;;;;;;11.48;100.00;99892.69;5112812;28;20150;-51
2023/03/23 00:53:09;;;;;;;5.18;2.50;;;;;;;11.78;100.00;99944.75;5096278;28;20024;-55
2023/03/23 00:55:35;;;;;;;5.88;2.80;;;;;;;11.42;100.00;99885.09;5114167;28;20169;-59
2023/03/23 00:58:00;;;;;;;3.38;2.00;;;;;;;11.80;100.00;99947.28;5114311;28;20188;-55
2023/03/23 01:00:26;;;;;;;5.63;2.13;;;;;;;11.80;100.00;99949.91;5114455;28;20113;-55
2023/03/23 01:02:53;;;;;;;2.63;2.22;;;;;;;11.79;100.00;99946.44;5114445;28;20031;-54
2023/03/23 01:05:18;;;;;;;2.88;2.25;;;;;;;11.51;100.00;99893.41;5113211;28;20028;-54
2023/03/23 01:07:44;;;;;;;4.38;2.10;;;;;;;11.61;100.00;99899.06;5081752;28;20117;-58
2023/03/23 01:10:12;;;;;;;6.32;2.53;;;;;;;11.56;100.00;99886.09;5114639;28;20118;-52
2023/03/23 01:12:38;;;;;;;5.10;2.58;;;;;;;11.50;100.00;99881.13;5114385;28;20043;-52
2023/03/23 01:15:05;;;;;;;4.05;2.15;;;;;;;11.83;100.00;99915.50;5114079;28;20070;-52
2023/03/23 01:17:31;;;;;;;3.35;2.00;;;;;;;11.84;100.00;99925.13;5113487;28;20058;-56
2023/03/23 01:19:56;;;;;;;4.65;2.30;;;;;;;11.90;100.00;99930.06;5114214;28;20242;-54
2023/03/23 01:22:22;;;;;;;3.80;2.22;;;;;;;11.90;100.00;99914.25;5094289;28;20027;-54
2023/03/23 01:24:47;;;;;;;4.28;2.30;;;;;;;11.88;100.00;99923.19;5113872;28;20465;-51
2023/03/23 01:27:12;;;;;;;2.78;2.15;;;;;;;11.87;100.00;99908.28;5114416;28;20088;-58
2023/03/23 01:29:37;;;;;;;4.13;2.35;;;;;;;11.83;100.00;99907.59;5113689;28;20549;-55
2023/03/23 01:32:03;;;;;;;2.72;1.95;;;;;;;11.81;100.00;99898.91;5113511;28;20451;-56
2023/03/23 01:34:28;;;;;;;3.65;2.35;;;;;;;11.79;100.00;99901.59;5095611;28;20450;-56
2023/03/23 01:36:54;;;;;;;3.70;1.98;;;;;;;11.46;100.00;99855.03;5095607;28;20043;-54
2023/03/23 01:39:20;;;;;;;6.68;2.38;;;;;;;11.46;100.00;99847.13;5094401;28;20028;-51
2023/03/23 01:41:45;;;;;;;6.57;2.08;;;;;;;11.83;100.00;99900.53;5095413;28;20126;-56
2023/03/23 01:44:16;;;;;;;3.10;1.77;;;;;;;11.88;100.00;99913.47;5113491;28;20024;-57
2023/03/23 01:46:43;;;;;;;4.05;2.67;;;;;;;11.69;100.00;99871.41;5095109;28;20398;-57
2023/03/23 01:49:12;;;;;;;5.30;2.08;;;;;;;11.78;100.00;99883.25;5095473;28;20046;-53
2023/03/23 01:51:42;;;;;;;3.80;1.77;;;;;;;11.77;100.00;99869.22;5078614;28;20034;-58
2023/03/23 01:54:13;;;;;;;2.80;1.88;;;;;;;11.93;100.00;99879.81;5113505;28;20023;-51
2023/03/23 01:56:46;;;;;;;2.92;1.67;;;;;;;11.87;100.00;99869.59;5112361;28;20374;-53
2023/03/23 01:59:12;;;;;;;2.42;1.63;;;;;;;11.93;100.00;99893.00;5094892;28;20549;-52
2023/03/23 02:01:43;;;;;;;3.40;1.55;;;;;;;11.58;100.00;99810.47;5094991;28;20023;-50
2023/03/23 02:04:09;;;;;;;2.58;1.60;;;;;;;11.95;100.00;99885.00;5095063;28;20095;-55
2023/03/23 02:06:34;;;;;;;4.90;1.85;;;;;;;11.90;100.00;99900.22;5113480;28;20130;-53
2023/03/23 02:09:00;;;;;;;4.50;1.55;;;;;;;11.87;100.00;99893.31;5113074;28;20108;-52
2023/03/23 02:11:25;;;;;;;2.00;1.67;;;;;;;11.52;100.00;99826.59;5094952;28;20082;-55
2023/03/23 02:13:51;;;;;;;2.38;2.13;;;;;;;11.74;100.00;99863.25;5111792;28;20032;-53
2023/03/23 02:16:33;;;;;;;3.58;1.70;;;;;;;11.80;100.00;99881.38;5111936;28;20043;-56
2023/03/23 02:19:38;;;;;;;3.30;1.65;;;;;;;11.90;100.00;99906.34;5113287;28;20076;-60
2023/03/23 02:22:12;;;;;;;3.67;1.92;;;;;;;11.93;100.00;99894.78;5112888;28;20172;-56
2023/03/23 02:24:43;;;;;;;2.70;2.05;;;;;;;11.99;100.00;99899.72;5113036;28;20031;-53
2023/03/23 02:27:16;;;;;;;4.00;1.92;;;;;;;11.90;100.00;99895.78;5113567;28;20031;-59
2023/03/23 02:30:07;;;;;;;3.40;1.90;;;;;;;11.97;100.00;99897.16;5093835;28;20478;-55
2023/03/23 02:32:55;;;;;;;2.67;1.92;;;;;;;11.93;100.00;99881.59;5112792;28;20085;-52
2023/03/23 02:36:11;;;;;;;6.47;1.90;;;;;;;11.93;100.00;99877.19;5094726;28;20058;-55
2023/03/23 02:38:44;;;;;;;3.08;1.60;;;;;;;11.97;100.00;99891.03;5069094;28;20035;-54
2023/03/23 02:41:11;;;;;;;5.13;2.47;;;;;;;11.92;100.00;99872.81;5094141;28;20031;-51
2023/03/23 02:43:40;;;;;;;10.27;2.22;;;;;;;11.62;100.00;99835.69;5094422;28;20059;-51
2023/03/23 02:46:08;;;;;;;3.97;1.67;;;;;;;11.67;100.00;99832.84;5094435;28;20031;-53
2023/03/23 02:48:34;;;;;;;4.82;1.90;;;;;;;11.64;100.00;99839.13;5090483;28;20028;-53
2023/03/23 02:51:00;;;;;;;4.05;1.98;;;;;;;11.60;100.00;99840.22;5074206;28;20063;-54
2023/03/23 02:53:26;;;;;;;5.15;2.08;;;;;;;11.83;100.00;99863.63;5091862;28;20039;-54
2023/03/23 02:55:53;;;;;;;5.35;1.90;;;;;;;11.91;100.00;99881.66;5092125;28;20036;-52
2023/03/23 02:58:19;;;;;;;6.57;1.75;;;;;;;11.57;100.00;99828.97;5074163;28;20032;-54
2023/03/23 03:00:49;;;;;;;5.10;2.00;;;;;;;11.92;100.00;99877.25;5074153;28;20107;-53
2023/03/23 03:03:16;;;;;;;4.47;1.83;;;;;;;11.56;100.00;99838.66;5091311;28;20040;-51
2023/03/23 03:06:12;;;;;;;4.28;1.70;;;;;;;11.89;100.00;99877.41;5073968;28;20027;-54
2023/03/23 03:08:45;;;;;;;5.32;1.58;;;;;;;11.80;100.00;99862.91;5091945;28;20119;-55
2023/03/23 03:11:16;;;;;;;3.05;1.75;;;;;;;11.88;100.00;99883.63;5073639;28;20486;-52
2023/03/23 03:14:03;;;;;;;4.70;2.22;;;;;;;11.77;100.00;99873.63;5073727;28;20042;-56
2023/03/23 03:16:43;;;;;;;4.70;2.20;;;;;;;11.68;100.00;99874.94;5073526;28;20035;-54
2023/03/23 03:19:12;;;;;;;5.78;2.40;;;;;;;11.51;100.00;99856.50;5091838;28;20028;-54
2023/03/23 03:21:41;;;;;;;5.82;2.22;;;;;;;11.50;100.00;99870.59;5072937;28;20024;-53
2023/03/23 03:24:10;;;;;;;5.07;1.95;;;;;;;11.40;100.00;99890.47;5073418;28;20463;-55
2023/03/23 03:26:37;;;;;;;4.18;2.28;;;;;;;11.30;100.00;99887.44;5091390;28;20114;-56
2023/03/23 03:29:03;;;;;;;3.22;2.22;;;;;;;11.19;100.00;99894.16;5091452;28;20690;-56
2023/03/23 03:31:32;;;;;;;5.50;2.80;;;;;;;10.93;100.00;99861.22;5073593;28;20111;-53
2023/03/23 03:34:00;;;;;;;3.83;2.50;;;;;;;10.62;100.00;99808.38;5073711;28;20039;-56
2023/03/23 03:36:28;;;;;;;6.80;3.10;;;;;;;10.96;100.00;99882.13;5073527;28;20039;-55
2023/03/23 03:38:53;;;;;;;5.82;2.70;;;;;;;10.84;100.00;99860.81;5088555;28;20035;-55
2023/03/23 03:41:19;;;;;;;5.35;2.58;;;;;;;10.83;100.00;99872.28;5111550;28;20038;-55
2023/03/23 03:43:45;;;;;;;5.22;3.05;;;;;;;10.53;100.00;99824.59;5093121;28;20039;-54
2023/03/23 03:46:10;;;;;;;8.88;2.95;;;;;;;10.45;100.00;99835.47;5093717;28;20031;-55
2023/03/23 03:48:35;;;;;;;6.03;2.22;;;;;;;10.47;100.00;99845.94;5111823;28;20482;-52
2023/03/23 03:51:02;;;;;;;5.03;2.58;;;;;;;10.59;100.00;99861.16;5111809;28;20162;-56
2023/03/23 03:53:28;;;;;;;6.00;2.78;;;;;;;10.39;100.00;99841.03;5111366;28;20032;-54
2023/03/23 03:55:59;;;;;;;6.35;2.75;;;;;;;10.61;100.00;99868.03;5074109;28;20055;-56
2023/03/23 03:58:24;;;;;;;;;;;;;;;10.67;100.00;99874.78;5074561;28;20036;-52
2023/03/23 04:00:50;;;;;;;6.77;2.70;;;;;;;10.33;100.00;99809.78;5090802;28;19923;-56
2023/03/23 04:03:16;;;;;;;6.38;2.60;;;;;;;10.33;100.00;99829.97;5056436;28;20285;-54
2023/03/23 04:05:42;;;;;;;9.80;3.85;;;;;;;10.63;100.00;99889.00;5091367;28;20031;-57
2023/03/23 04:08:07;;;;;;;8.77;3.40;;;;;;;10.24;100.00;99819.88;5091393;28;20517;-59
2023/03/23 04:10:33;;;;;;;8.30;3.75;;;;;;;10.56;100.00;99917.41;5072677;28;20395;-58
2023/03/23 04:12:58;;;;;;;9.50;3.47;;;;;;;10.56;100.00;99895.50;5091487;28;20067;-60
2023/03/23 04:15:25;;;;;;;7.43;2.90;;;;;;;10.24;100.00;99867.22;5073244;28;20044;-58
2023/03/23 04:17:50;;;;;;;6.82;3.22;;;;;;;10.21;100.00;99852.44;5090972;28;20131;-59
2023/03/23 04:20:19;;;;;;;8.98;3.05;;;;;;;10.48;100.00;99924.78;5091123;28;20115;-58
2023/03/23 04:22:48;;;;;;;9.80;3.67;;;;;;;10.48;100.00;99909.00;5091466;28;20024;-59
2023/03/23 04:25:15;;;;;;;7.43;3.70;;;;;;;10.49;100.00;99905.47;5072820;28;20471;-56
2023/03/23 04:27:46;;;;;;;11.68;3.42;;;;;;;10.49;100.00;99908.09;5090822;28;20559;-58
2023/03/23 04:30:12;;;;;;;8.27;2.83;;;;;;;10.40;100.00;99891.88;5091282;28;20116;-59
2023/03/23 04:32:41;;;;;;;15.93;3.58;;;;;;;10.43;100.00;99913.63;5091169;28;20123;-57
2023/03/23 04:35:08;;;;;;;9.35;3.35;;;;;;;10.48;100.00;99922.16;5073148;28;20028;-59
2023/03/23 04:37:34;;;;;;;14.13;3.33;;;;;;;10.19;100.00;99850.81;5090544;28;20040;-59
2023/03/23 04:40:12;;;;;;;10.48;2.92;;;;;;;10.59;100.00;99924.31;5075034;28;20058;-61
2023/03/23 04:42:39;;;;;;;9.20;2.97;;;;;;;10.63;100.00;99924.09;5094674;28;20042;-59
2023/03/23 04:45:07;;;;;;;10.82;2.70;;;;;;;10.68;100.00;99929.97;5111562;28;20047;-59
2023/03/23 04:47:39;;;;;;;10.93;3.20;;;;;;;10.69;100.00;99936.97;5114884;28;20062;-57
2023/03/23 04:50:06;;;;;;;14.50;3.00;;;;;;;10.69;100.00;99934.31;5114831;28;20418;-58
2023/03/23 04:52:31;;;;;;;16.13;3.72;;;;;;;10.48;100.00;99882.69;5114956;28;20040;-59
2023/03/23 04:54:57;;;;;;;10.98;2.95;;;;;;;10.70;100.00;99904.47;5114559;28;20065;-58
2023/03/23 04:57:23;;;;;;;8.38;2.58;;;;;;;10.83;100.00;99932.84;5096548;28;20023;-56
2023/03/23 04:59:48;;;;;;;9.52;2.30;;;;;;;10.58;100.00;99886.63;5096112;28;20068;-57
2023/03/23 05:02:14;;;;;;;11.75;3.17;;;;;;;10.77;100.00;99927.84;5094194;28;20043;-58
2023/03/23 05:04:43;;;;;;;8.95;2.58;;;;;;;10.50;100.00;99908.94;5076040;28;20039;-56
2023/03/23 05:07:10;;;;;;;14.15;3.65;;;;;;;10.36;100.00;99906.13;5094333;28;20047;-57
2023/03/23 05:09:36;;;;;;;13.93;3.72;;;;;;;10.55;100.00;99952.53;5094072;28;20023;-57
2023/03/23 05:12:05;;;;;;;11.05;3.50;;;;;;;10.18;100.00;99907.81;5093684;28;20364;-57
2023/03/23 05:14:31;;;;;;;17.92;4.45;;;;;;;10.46;100.00;99955.59;5075648;28;20086;-58
2023/03/23 05:16:56;;;;;;;14.25;3.20;;;;;;;10.41;100.00;99952.31;5108516;28;20047;-59
2023/03/23 05:19:21;;;;;;;12.45;4.03;;;;;;;10.01;100.00;99886.66;5114014;28;20031;-59
2023/03/23 05:21:47;;;;;;;16.95;3.63;;;;;;;10.33;100.00;99957.09;5114054;28;20119;-58
2023/03/23 05:24:12;;;;;;;16.88;3.42;;;;;;;10.33;100.00;99958.88;5114417;28;20046;-60
2023/03/23 05:26:37;;;;;;;18.50;4.30;;;;;;;10.31;100.00;99960.69;5113779;28;20038;-59
2023/03/23 05:29:03;;;;;;;16.17;3.80;;;;;;;10.29;100.00;99960.78;5114180;28;20043;-59
2023/03/23 05:31:28;;;;;;;13.90;4.03;;;;;;;10.15;100.00;99940.34;5113605;28;20411;-58
2023/03/23 05:33:54;;;;;;;13.48;3.45;;;;;;;10.30;100.00;99977.41;5112629;28;20192;-58
2023/03/23 05:36:19;;;;;;;13.85;3.70;;;;;;;10.28;100.00;99974.84;5113783;28;20035;-59
2023/03/23 05:38:47;;;;;;;14.88;4.70;;;;;;;10.30;100.00;99977.41;5113682;28;20126;-59
2023/03/23 05:41:13;;;;;;;15.23;4.05;;;;;;;9.92;100.00;99914.19;5114058;28;20462;-60
2023/03/23 05:43:39;;;;;;;13.75;4.22;;;;;;;10.29;100.00;99971.28;5113376;28;20407;-62
2023/03/23 05:46:05;;;;;;;17.52;3.95;;;;;;;9.95;100.00;99915.84;5095267;28;20031;-62
2023/03/23 05:48:30;;;;;;;14.63;4.38;;;;;;;10.32;100.00;99975.56;5113156;28;20443;-62
2023/03/23 05:50:56;;;;;;;19.08;4.00;;;;;;;10.31;100.00;99987.00;5098876;28;20040;-59
2023/03/23 05:53:23;;;;;;;15.75;4.30;;;;;;;10.34;100.00;99998.22;5093034;28;20529;-59
2023/03/23 05:55:48;;;;;;;13.80;3.85;;;;;;;10.36;100.00;99977.97;5093021;28;20141;-59
2023/03/23 05:58:13;;;;;;;21.33;4.35;;;;;;;10.05;100.00;99927.63;5092981;28;20051;-59
2023/03/23 06:00:39;;;;;;;21.88;5.18;;;;;;;10.40;100.00;99986.56;5077477;28;20602;-62
2023/03/23 06:03:05;;;;;;;16.98;4.28;;;;;;;10.39;100.00;99984.91;5101409;28;20035;-57
2023/03/23 06:05:32;;;;;;;22.05;4.55;;;;;;;10.27;100.00;99978.41;5091685;28;20069;-58
2023/03/23 06:07:58;;;;;;;19.00;5.07;;;;;;;10.43;100.00;99992.56;5099188;28;20449;-57
2023/03/23 06:10:23;;;;;;;19.42;4.78;;;;;;;10.43;100.00;100000.47;5113557;28;20035;-59
2023/03/23 06:12:50;;;;;;;18.40;4.20;;;;;;;10.12;100.00;99943.09;5111237;28;20040;-59
2023/03/23 06:15:15;;;;;;;20.77;4.32;;;;;;;10.14;100.00;99950.94;5111772;28;20201;-58
2023/03/23 06:17:41;;;;;;;14.75;4.40;;;;;;;10.28;100.00;99961.69;5092853;28;20146;-59
2023/03/23 06:20:09;;;;;;;13.70;3.90;;;;;;;10.51;100.00;100016.75;5074311;28;20082;-59
2023/03/23 06:22:37;;;;;;;19.92;4.57;;;;;;;10.52;100.00;100000.03;5099171;28;20070;-58
2023/03/23 06:25:05;;;;;;;14.35;3.80;;;;;;;10.30;100.00;99959.00;5091562;28;20036;-58
2023/03/23 06:27:30;;;;;;;15.88;4.07;;;;;;;10.65;100.00;100030.13;5113126;28;20127;-59
2023/03/23 06:29:56;;;;;;;19.27;3.90;;;;;;;10.61;100.00;100017.19;5091892;28;20244;-59
2023/03/23 06:32:22;;;;;;;15.43;4.10;;;;;;;10.65;100.00;100029.31;5108190;28;20098;-58
2023/03/23 06:34:47;;;;;;;15.45;4.60;;;;;;;10.37;100.00;99971.78;5094796;28;20031;-55
2023/03/23 06:37:13;;;;;;;19.95;3.95;;;;;;;10.35;100.00;99975.41;5112677;28;20046;-64
2023/03/23 06:39:39;;;;;;;17.20;5.25;;;;;;;10.62;100.00;100027.63;5093392;28;20024;-62
2023/03/23 06:42:05;;;;;;;17.00;4.28;;;;;;;10.64;100.00;100041.59;5095838;28;20425;-59
2023/03/23 06:44:30;;;;;;;19.58;4.30;;;;;;;10.61;100.00;100036.47;5092219;28;20053;-58
2023/03/23 06:46:55;;;;;;;16.27;4.35;;;;;;;10.69;100.00;100047.50;5091865;28;20032;-58
2023/03/23 06:49:22;;;;;;;15.55;4.05;;;;;;;10.33;100.00;99983.41;5092023;28;20032;-58
2023/03/23 06:51:47;;;;;;;13.75;3.88;;;;;;;10.41;100.00;99978.63;5081752;28;20027;-58
2023/03/23 06:54:12;;;;;;;16.20;3.47;;;;;;;10.45;100.00;99989.88;5112485;28;20090;-58
2023/03/23 06:56:37;;;;;;;16.25;3.25;;;;;;;10.12;100.00;99927.31;5112265;28;20028;-58
2023/03/23 06:59:03;;;;;;;18.13;3.67;;;;;;;10.79;100.00;100057.63;5077191;28;20387;-57
2023/03/23 07:01:29;;;;;;;13.75;3.55;;;;;;;10.82;100.00;100050.44;5077476;28;20489;-58
2023/03/23 07:03:55;;;;;;;13.40;3.63;;;;;;;10.85;100.00;100074.00;5091287;28;20344;-58
2023/03/23 07:06:21;;;;;;;14.63;3.53;;;;;;;10.86;100.00;100086.22;5091915;28;20040;-58
2023/03/23 07:08:46;;;;;;;11.25;3.33;;;;;;;10.56;100.00;100016.56;5076396;28;20031;-58
2023/03/23 07:11:12;;;;;;;10.60;2.80;;;;;;;10.88;100.00;100081.75;5092250;28;20032;-56
2023/03/23 07:13:37;;;;;;;15.10;3.17;;;;;;;10.81;100.00;100061.88;5091292;28;20100;-60
2023/03/23 07:16:05;;;;;;;12.45;3.33;;;;;;;10.82;100.00;100063.59;5090826;28;20379;-58
2023/03/23 07:18:31;;;;;;;16.50;3.33;;;;;;;10.82;100.00;100081.16;5097721;28;20074;-60
2023/03/23 07:20:56;;;;;;;14.30;3.00;;;;;;;10.46;100.00;100020.50;5091655;28;20060;-58
2023/03/23 07:23:22;;;;;;;12.90;3.65;;;;;;;10.79;100.00;100092.69;5091521;28;20035;-55
2023/03/23 07:25:48;;;;;;;12.45;3.15;;;;;;;10.74;100.00;100082.34;5091707;28;20038;-57
2023/03/23 07:28:14;;;;;;;10.20;3.20;;;;;;;10.86;100.00;100080.94;5099196;28;20043;-59
2023/03/23 07:30:40;;;;;;;13.57;3.17;;;;;;;10.91;100.00;100067.59;5091661;28;20038;-61
2023/03/23 07:33:06;;;;;;;14.07;3.70;;;;;;;10.92;100.00;100075.41;5073239;28;20122;-59
2023/03/23 07:35:32;;;;;;;11.05;2.60;;;;;;;10.62;100.00;100032.06;5073671;28;20028;-54
2023/03/23 07:37:58;;;;;;;11.77;2.78;;;;;;;10.91;100.00;100088.66;5084242;28;20058;-58
2023/03/23 07:40:23;;;;;;;9.52;3.10;;;;;;;10.89;100.00;100064.16;5091154;28;20062;-57
2023/03/23 07:42:56;;;;;;;12.70;3.10;;;;;;;10.87;100.00;100019.47;5071603;28;20031;-58
2023/03/23 07:45:22;;;;;;;9.00;2.53;;;;;;;11.78;100.00;100052.84;5072549;28;20093;-57
2023/03/23 07:47:47;;;;;;;7.03;3.00;;;;;;;12.76;100.00;100075.03;5072695;28;20409;-56
2023/03/23 07:50:13;;;;;;;11.07;3.10;;;;;;;13.24;100.00;100023.97;5090113;28;20035;-58
2023/03/23 07:52:41;;;;;;;11.13;3.20;;;;;;;13.99;100.00;100074.28;5102622;28;20040;-59
2023/03/23 07:55:09;;;;;;;11.82;3.00;;;;;;;13.98;100.00;100099.03;5090897;28;20040;-50
2023/03/23 07:57:35;;;;;;;14.05;2.97;;;;;;;13.15;100.00;100043.00;5096682;28;20173;-55
2023/03/23 08:00:00;;;;;;;10.38;2.90;;;;;;;12.77;100.00;100048.53;5111392;28;20080;-56
2023/03/23 08:02:26;;;;;;;10.75;3.22;;;;;;;12.90;100.00;100105.03;5111587;28;20036;-50
2023/03/23 08:04:53;;;;;;;11.63;3.78;;;;;;;12.98;100.00;100109.94;5089161;28;20110;-56
2023/03/23 08:07:19;;;;;;;11.65;3.40;;;;;;;12.95;100.00;100096.88;5102028;28;20073;-50
2023/03/23 08:09:45;;;;;;;13.68;2.97;;;;;;;12.85;100.00;100098.31;5111407;28;20085;-57
2023/03/23 08:12:11;;;;;;;13.77;2.83;;;;;;;13.07;100.00;100058.38;5093387;28;20455;-56
2023/03/23 08:14:36;;;;;;;12.23;2.95;;;;;;;13.31;100.00;100059.72;5111403;28;20057;-58
2023/03/23 08:17:02;;;;;;;10.23;3.03;;;;;;;14.40;100.00;100138.03;5094630;28;20082;-54
2023/03/23 08:19:27;;;;;;;10.63;2.80;;;;;;;14.39;100.00;100089.53;5095121;28;20036;-54
2023/03/23 08:21:53;;;;;;;12.77;3.78;;;;;;;14.64;100.00;100086.28;5094958;28;20027;-56
2023/03/23 08:24:19;;;;;;;8.13;3.25;;;;;;;15.35;100.00;100091.53;5076270;28;20028;-57
2023/03/23 08:26:44;;;;;;;11.07;3.17;;;;;;;16.05;100.00;100148.91;5097038;28;20028;-56
2023/03/23 08:29:09;;;;;;;11.15;3.35;;;;;;;15.61;100.00;100090.75;5097217;28;20446;-57
2023/03/23 08:31:37;;;;;;;11.32;3.25;;;;;;;15.73;100.00;100143.84;5115257;28;20035;-55
2023/03/23 08:34:04;;;;;;;9.10;3.45;;;;;;;15.98;100.00;100164.38;5115418;28;20111;-51
2023/03/23 08:36:31;;;;;;;10.65;3.83;;;;;;;16.32;100.00;100155.88;5107121;28;20490;-51
2023/03/23 08:38:57;;;;;;;10.20;3.00;;;;;;;15.89;100.00;100196.81;5094547;28;20119;-53
2023/03/23 08:41:22;;;;;;;8.82;2.92;;;;;;;15.63;100.00;100201.13;5080134;28;20119;-57
2023/03/23 08:43:47;;;;;;;14.55;3.50;;;;;;;14.83;100.00;100165.47;5096906;28;20512;-56
2023/03/23 08:46:13;;;;;;;10.55;3.15;;;;;;;14.65;100.00;100205.34;5093946;28;20043;-54
2023/03/23 08:48:39;;;;;;;12.35;3.10;;;;;;;14.18;100.00;100145.53;5094214;28;20036;-54
2023/03/23 08:51:05;;;;;;;14.00;3.28;;;;;;;14.93;100.00;100195.78;5100367;28;20395;-54
2023/03/23 08:53:31;;;;;;;13.35;3.28;;;;;;;15.21;100.00;100194.00;5075711;28;20024;-52
2023/03/23 08:56:03;;;;;;;10.85;3.17;;;;;;;15.62;100.00;100167.56;5094011;28;20042;-56
2023/03/23 08:58:29;;;;;;;12.20;3.22;;;;;;;15.61;100.00;100146.47;5081696;28;20039;-59
2023/03/23 09:00:54;;;;;;;11.93;3.50;;;;;;;16.13;100.00;100200.53;5114470;28;20036;-56
2023/03/23 09:03:20;;;;;;;12.65;3.10;;;;;;;16.82;100.00;100194.16;5096515;28;20032;-50
2023/03/23 09:05:45;;;;;;;13.23;3.53;;;;;;;16.81;100.00;100168.53;5093898;28;20036;-53
2023/03/23 09:08:12;;;;;;;13.20;3.83;;;;;;;16.95;100.00;100203.00;5076037;28;20032;-51
2023/03/23 09:10:38;;;;;;;15.77;3.13;;;;;;;16.70;100.00;100197.63;5094126;28;20040;-49
2023/03/23 09:13:04;;;;;;;10.63;3.22;;;;;;;16.33;100.00;100152.28;5094121;28;20032;-56
2023/03/23 09:15:30;;;;;;;10.60;3.33;;;;;;;16.12;100.00;100213.91;5094111;28;20117;-57
2023/03/23 09:17:57;;;;;;;9.93;2.90;;;;;;;15.98;100.00;100195.34;5075367;28;20055;-54
2023/03/23 09:20:24;;;;;;;15.02;3.42;;;;;;;15.58;100.00;100142.22;5093221;28;20085;-54
2023/03/23 09:22:52;;;;;;;13.68;3.15;;;;;;;15.50;100.00;100146.31;5096952;28;20307;-53
2023/03/23 09:25:21;;;;;;;13.55;4.00;;;;;;;15.59;100.00;100196.94;5093197;28;20020;-55
2023/03/23 09:27:51;;;;;;;10.80;3.33;;;;;;;15.10;100.00;100139.94;5100445;28;20394;-56
2023/03/23 09:30:18;;;;;;;9.63;3.30;;;;;;;15.20;100.00;100213.53;5113867;28;20060;-56
2023/03/23 09:32:44;;;;;;;14.40;3.65;;;;;;;15.01;100.00;100154.59;5112662;28;20126;-57
2023/03/23 09:35:11;;;;;;;13.75;3.20;;;;;;;14.94;100.00;100184.25;5077415;28;20383;-59
2023/03/23 09:37:38;;;;;;;15.07;3.92;;;;;;;14.46;100.00;100190.66;5093114;28;20088;-55
2023/03/23 09:40:06;;;;;;;11.63;2.90;;;;;;;14.22;100.00;100194.66;5101722;28;20039;-58
2023/03/23 09:42:49;;;;;;;16.60;3.78;;;;;;;14.07;100.00;100185.81;5113656;28;20031;-54
2023/03/23 09:45:33;;;;;;;14.00;4.15;;;;;;;14.01;100.00;100204.69;5095361;28;20032;-58
2023/03/23 09:48:19;;;;;;;12.85;3.78;;;;;;;14.34;100.00;100213.41;5113593;28;20463;-56
2023/03/23 09:50:47;;;;;;;14.00;3.58;;;;;;;14.59;100.00;100216.31;5095429;28;20036;-51
2023/03/23 09:53:35;;;;;;;13.35;3.50;;;;;;;15.19;100.00;100218.91;5104474;28;20420;-56
2023/03/23 09:56:02;;;;;;;12.85;3.35;;;;;;;15.54;100.00;100206.16;5112670;28;20031;-54
2023/03/23 09:58:35;;;;;;;14.05;3.67;;;;;;;16.00;100.00;100233.25;5077086;28;20387;-55
2023/03/23 10:01:21;;;;;;;12.10;3.50;;;;;;;16.85;100.00;100228.50;5075284;28;20386;-52
2023/03/23 10:03:47;;;;;;;12.82;3.30;;;;;;;17.25;100.00;100171.59;5077960;28;20574;-54
2023/03/23 10:06:17;;;;;;;11.43;3.83;;;;;;;18.71;100.00;100251.53;5104184;28;20119;-52
2023/03/23 10:08:57;;;;;;;14.43;3.55;;;;;;;19.02;100.00;100234.91;5080872;28;20031;-53
2023/03/23 10:11:32;;;;;;;12.95;3.92;;;;;;;19.37;100.00;100251.72;5110146;28;20378;-49
2023/03/23 10:14:19;;;;;;;11.27;3.45;;;;;;;19.67;100.00;100252.97;5089905;28;20070;-49
2023/03/23 10:17:00;;;;;;;14.23;3.83;;;;;;;19.51;100.00;100258.66;5092352;28;20067;-52
2023/03/23 10:19:40;;;;;;;12.68;3.20;;;;;;;19.12;100.00;100190.53;5092655;28;20031;-55
2023/03/23 10:22:09;;;;;;;14.32;3.97;;;;;;;18.38;100.00;100258.38;5092549;28;20105;-51
2023/03/23 10:24:52;;;;;;;13.93;4.28;;;;;;;17.48;100.00;100193.09;5092569;28;20036;-49
2023/03/23 10:27:23;;;;;;;14.95;4.00;;;;;;;17.66;100.00;100250.38;5074688;28;20035;-53
2023/03/23 10:29:55;;;;;;;11.55;4.28;;;;;;;17.72;100.00;100232.13;5101173;28;20040;-50
2023/03/23 10:32:34;;;;;;;16.70;4.07;;;;;;;18.71;100.00;100224.88;5112568;28;20091;-49
2023/03/23 10:35:03;;;;;;;16.30;4.68;;;;;;;19.09;100.00;100188.09;5112465;28;20062;-50
2023/03/23 10:37:36;;;;;;;14.70;3.65;;;;;;;19.20;100.00;100172.13;5093597;28;20046;-51
2023/03/23 10:40:06;;;;;;;19.30;4.38;;;;;;;18.49;100.00;100229.16;5094045;28;20539;-59
2023/03/23 10:42:33;;;;;;;12.73;3.90;;;;;;;19.12;100.00;100248.38;5088538;28;20452;-49
2023/03/23 10:45:00;;;;;;;14.55;3.85;;;;;;;19.14;100.00;100262.44;5073728;28;20559;-51
2023/03/23 10:47:28;;;;;;;12.55;3.58;;;;;;;18.45;100.00;100294.25;5092159;28;20036;-51
2023/03/23 10:49:59;;;;;;;14.10;4.43;;;;;;;18.10;100.00;100265.81;5091953;28;20028;-49
2023/03/23 10:52:37;;;;;;;19.33;4.40;;;;;;;17.88;100.00;100255.88;5073330;28;20024;-51
2023/03/23 10:55:05;;;;;;;14.88;4.38;;;;;;;17.69;100.00;100197.75;5091991;28;20024;-49
2023/03/23 10:57:33;;;;;;;13.07;4.28;;;;;;;18.34;100.00;100192.09;5091836;28;20391;-58
2023/03/23 11:00:18;;;;;;;14.73;4.75;;;;;;;18.85;100.00;100198.88;5101226;28;20467;-57
2023/03/23 11:02:47;;;;;;;10.80;3.58;;;;;;;18.87;100.00;100198.72;5112112;28;20027;-54
2023/03/23 11:05:21;;;;;;;14.90;3.67;;;;;;;18.91;100.00;100242.88;5111994;28;20027;-51
2023/03/23 11:07:53;;;;;;;12.75;4.13;;;;;;;19.25;100.00;100252.66;5111839;28;20023;-58
2023/03/23 11:10:36;;;;;;;17.80;5.28;;;;;;;19.60;100.00;100225.91;5112167;28;20446;-52
2023/03/23 11:13:04;;;;;;;11.82;4.18;;;;;;;20.15;100.00;100254.38;5110852;28;20040;-53
2023/03/23 11:15:39;;;;;;;15.10;3.80;;;;;;;19.35;100.00;100194.09;5093993;28;20039;-55
2023/03/23 11:18:20;;;;;;;10.77;3.72;;;;;;;19.54;100.00;100239.72;5089994;28;20142;-48
2023/03/23 11:20:48;;;;;;;10.65;3.78;;;;;;;19.69;100.00;100222.50;5091701;28;20063;-54
2023/03/23 11:23:20;;;;;;;9.77;4.07;;;;;;;20.36;100.00;100258.00;5090387;28;20020;-55